sensor_id;sensor_type;location;lat;lon;timestamp;P1;durP1;ratioP1;P2;durP2;ratioP2
41297;SDS011;27381;46.032;13.650;2023-02-01T00:00:00;6.75;;;4.18;;
41297;SDS011;27381;46.032;13.650;2023-02-01T00:02:26;11.10;;;3.10;;
41297;SDS011;27381;46.032;13.650;2023-02-01T00:04:51;11.57;;;4.47;;
41297;SDS011;27381;46.032;13.650;2023-02-01T00:07:16;11.13;;;3.75;;
41297;SDS011;27381;46.032;13.650;2023-02-01T00:09:42;7.35;;;2.75;;
41297;SDS011;27381;46.032;13.650;2023-02-01T00:12:07;7.40;;;3.67;;
41297;SDS011;27381;46.032;13.650;2023-02-01T00:14:33;8.80;;;2.97;;
41297;SDS011;27381;46.032;13.650;2023-02-01T00:17:06;5.28;;;3.22;;
41297;SDS011;27381;46.032;13.650;2023-02-01T00:19:32;9.80;;;2.50;;
41297;SDS011;27381;46.032;13.650;2023-02-01T00:21:58;9.13;;;3.53;;
41297;SDS011;27381;46.032;13.650;2023-02-01T00:24:23;4.25;;;2.75;;
41297;SDS011;27381;46.032;13.650;2023-02-01T00:26:48;9.13;;;4.28;;
41297;SDS011;27381;46.032;13.650;2023-02-01T00:29:16;9.07;;;4.22;;
41297;SDS011;27381;46.032;13.650;2023-02-01T00:31:43;6.47;;;3.55;;
41297;SDS011;27381;46.032;13.650;2023-02-01T00:34:12;8.00;;;3.78;;
41297;SDS011;27381;46.032;13.650;2023-02-01T00:36:37;10.05;;;4.55;;
41297;SDS011;27381;46.032;13.650;2023-02-01T00:39:03;5.60;;;4.28;;
41297;SDS011;27381;46.032;13.650;2023-02-01T00:41:28;4.20;;;3.47;;
41297;SDS011;27381;46.032;13.650;2023-02-01T00:43:54;11.32;;;3.25;;
41297;SDS011;27381;46.032;13.650;2023-02-01T00:46:20;9.43;;;4.43;;
41297;SDS011;27381;46.032;13.650;2023-02-01T00:48:46;8.85;;;3.55;;
41297;SDS011;27381;46.032;13.650;2023-02-01T00:51:14;7.18;;;3.95;;
41297;SDS011;27381;46.032;13.650;2023-02-01T00:53:39;9.80;;;4.00;;
41297;SDS011;27381;46.032;13.650;2023-02-01T00:56:05;9.52;;;4.47;;
41297;SDS011;27381;46.032;13.650;2023-02-01T00:58:31;9.73;;;3.67;;
41297;SDS011;27381;46.032;13.650;2023-02-01T01:03:25;9.35;;;4.82;;
41297;SDS011;27381;46.032;13.650;2023-02-01T01:05:51;10.02;;;3.42;;
41297;SDS011;27381;46.032;13.650;2023-02-01T01:08:16;7.03;;;3.47;;
41297;SDS011;27381;46.032;13.650;2023-02-01T01:10:42;10.23;;;3.25;;
41297;SDS011;27381;46.032;13.650;2023-02-01T01:13:07;9.52;;;3.45;;
41297;SDS011;27381;46.032;13.650;2023-02-01T01:15:37;8.15;;;3.85;;
41297;SDS011;27381;46.032;13.650;2023-02-01T01:18:02;7.20;;;2.60;;
41297;SDS011;27381;46.032;13.650;2023-02-01T01:20:28;5.85;;;3.50;;
41297;SDS011;27381;46.032;13.650;2023-02-01T01:22:54;8.90;;;3.22;;
41297;SDS011;27381;46.032;13.650;2023-02-01T01:25:19;7.95;;;3.65;;
41297;SDS011;27381;46.032;13.650;2023-02-01T01:27:45;4.80;;;2.67;;
41297;SDS011;27381;46.032;13.650;2023-02-01T01:30:10;7.82;;;3.35;;
41297;SDS011;27381;46.032;13.650;2023-02-01T01:32:36;7.43;;;3.22;;
41297;SDS011;27381;46.032;13.650;2023-02-01T01:35:01;5.80;;;3.15;;
41297;SDS011;27381;46.032;13.650;2023-02-01T01:37:26;7.72;;;2.95;;
41297;SDS011;27381;46.032;13.650;2023-02-01T01:39:52;8.13;;;3.15;;
41297;SDS011;27381;46.032;13.650;2023-02-01T01:42:17;3.53;;;2.92;;
41297;SDS011;27381;46.032;13.650;2023-02-01T01:45:05;16.92;;;3.85;;
41297;SDS011;27381;46.032;13.650;2023-02-01T01:47:35;11.60;;;4.80;;
41297;SDS011;27381;46.032;13.650;2023-02-01T01:50:03;4.53;;;2.72;;
41297;SDS011;27381;46.032;13.650;2023-02-01T01:52:29;6.80;;;3.17;;
41297;SDS011;27381;46.032;13.650;2023-02-01T01:54:55;4.97;;;3.22;;
41297;SDS011;27381;46.032;13.650;2023-02-01T01:57:24;6.47;;;3.83;;
41297;SDS011;27381;46.032;13.650;2023-02-01T01:59:56;6.43;;;3.78;;
41297;SDS011;27381;46.032;13.650;2023-02-01T02:02:24;6.97;;;2.83;;
41297;SDS011;27381;46.032;13.650;2023-02-01T02:04:50;5.38;;;2.33;;
41297;SDS011;27381;46.032;13.650;2023-02-01T02:07:16;9.25;;;3.65;;
41297;SDS011;27381;46.032;13.650;2023-02-01T02:09:42;10.15;;;3.03;;
41297;SDS011;27381;46.032;13.650;2023-02-01T02:12:08;6.28;;;3.20;;
41297;SDS011;27381;46.032;13.650;2023-02-01T02:14:34;7.38;;;3.08;;
41297;SDS011;27381;46.032;13.650;2023-02-01T02:27:20;10.00;;;4.47;;
41297;SDS011;27381;46.032;13.650;2023-02-01T02:39:58;4.10;;;2.88;;
41297;SDS011;27381;46.032;13.650;2023-02-01T02:42:30;4.88;;;2.70;;
41297;SDS011;27381;46.032;13.650;2023-02-01T02:45:23;4.72;;;3.03;;
41297;SDS011;27381;46.032;13.650;2023-02-01T02:54:22;6.15;;;2.92;;
41297;SDS011;27381;46.032;13.650;2023-02-01T02:56:57;9.13;;;3.53;;
41297;SDS011;27381;46.032;13.650;2023-02-01T02:59:43;6.97;;;3.00;;
41297;SDS011;27381;46.032;13.650;2023-02-01T03:02:28;5.85;;;3.22;;
41297;SDS011;27381;46.032;13.650;2023-02-01T03:05:12;17.55;;;3.53;;
41297;SDS011;27381;46.032;13.650;2023-02-01T03:12:59;8.40;;;5.22;;
41297;SDS011;27381;46.032;13.650;2023-02-01T03:15:31;4.03;;;3.17;;
41297;SDS011;27381;46.032;13.650;2023-02-01T03:17:57;8.18;;;3.17;;
41297;SDS011;27381;46.032;13.650;2023-02-01T03:20:24;5.20;;;3.35;;
41297;SDS011;27381;46.032;13.650;2023-02-01T03:22:50;7.05;;;3.88;;
41297;SDS011;27381;46.032;13.650;2023-02-01T03:25:18;9.48;;;3.55;;
41297;SDS011;27381;46.032;13.650;2023-02-01T03:27:54;12.35;;;3.92;;
41297;SDS011;27381;46.032;13.650;2023-02-01T03:30:24;10.43;;;3.97;;
41297;SDS011;27381;46.032;13.650;2023-02-01T03:32:51;5.30;;;3.20;;
41297;SDS011;27381;46.032;13.650;2023-02-01T03:38:03;6.60;;;3.55;;
41297;SDS011;27381;46.032;13.650;2023-02-01T03:40:36;11.32;;;4.35;;
41297;SDS011;27381;46.032;13.650;2023-02-01T03:43:02;6.10;;;3.47;;
41297;SDS011;27381;46.032;13.650;2023-02-01T03:45:36;9.88;;;4.28;;
41297;SDS011;27381;46.032;13.650;2023-02-01T03:48:05;5.05;;;3.35;;
41297;SDS011;27381;46.032;13.650;2023-02-01T03:50:32;5.63;;;3.78;;
41297;SDS011;27381;46.032;13.650;2023-02-01T03:53:20;6.03;;;3.05;;
41297;SDS011;27381;46.032;13.650;2023-02-01T03:55:46;6.30;;;4.22;;
41297;SDS011;27381;46.032;13.650;2023-02-01T03:58:17;7.47;;;4.05;;
41297;SDS011;27381;46.032;13.650;2023-02-01T04:00:44;8.48;;;3.35;;
41297;SDS011;27381;46.032;13.650;2023-02-01T04:03:09;6.53;;;3.08;;
41297;SDS011;27381;46.032;13.650;2023-02-01T04:05:36;13.50;;;4.50;;
41297;SDS011;27381;46.032;13.650;2023-02-01T04:08:04;11.00;;;3.63;;
41297;SDS011;27381;46.032;13.650;2023-02-01T04:10:30;8.70;;;3.03;;
41297;SDS011;27381;46.032;13.650;2023-02-01T04:12:55;6.75;;;3.05;;
41297;SDS011;27381;46.032;13.650;2023-02-01T04:15:21;10.15;;;4.35;;
41297;SDS011;27381;46.032;13.650;2023-02-01T04:17:46;7.97;;;3.17;;
41297;SDS011;27381;46.032;13.650;2023-02-01T04:20:12;8.95;;;2.90;;
41297;SDS011;27381;46.032;13.650;2023-02-01T04:22:37;4.28;;;1.90;;
41297;SDS011;27381;46.032;13.650;2023-02-01T04:25:02;6.85;;;2.72;;
41297;SDS011;27381;46.032;13.650;2023-02-01T04:27:28;7.03;;;4.80;;
41297;SDS011;27381;46.032;13.650;2023-02-01T04:29:53;10.43;;;3.92;;
41297;SDS011;27381;46.032;13.650;2023-02-01T04:32:18;6.63;;;3.20;;
41297;SDS011;27381;46.032;13.650;2023-02-01T04:34:45;5.50;;;3.33;;
41297;SDS011;27381;46.032;13.650;2023-02-01T04:37:10;5.05;;;3.47;;
41297;SDS011;27381;46.032;13.650;2023-02-01T04:39:36;13.13;;;3.85;;
41297;SDS011;27381;46.032;13.650;2023-02-01T04:42:01;7.07;;;3.25;;
41297;SDS011;27381;46.032;13.650;2023-02-01T04:44:27;8.50;;;2.20;;
41297;SDS011;27381;46.032;13.650;2023-02-01T04:46:53;5.68;;;3.28;;
41297;SDS011;27381;46.032;13.650;2023-02-01T04:49:18;8.60;;;4.38;;
41297;SDS011;27381;46.032;13.650;2023-02-01T04:51:45;9.05;;;4.35;;
41297;SDS011;27381;46.032;13.650;2023-02-01T04:54:10;4.00;;;3.28;;
41297;SDS011;27381;46.032;13.650;2023-02-01T04:56:39;9.80;;;4.20;;
41297;SDS011;27381;46.032;13.650;2023-02-01T04:59:05;11.10;;;3.90;;
41297;SDS011;27381;46.032;13.650;2023-02-01T05:01:30;8.38;;;3.95;;
41297;SDS011;27381;46.032;13.650;2023-02-01T05:03:56;5.47;;;2.92;;
41297;SDS011;27381;46.032;13.650;2023-02-01T05:06:21;7.75;;;3.20;;
41297;SDS011;27381;46.032;13.650;2023-02-01T05:08:47;9.05;;;2.80;;
41297;SDS011;27381;46.032;13.650;2023-02-01T05:11:13;5.10;;;2.90;;
41297;SDS011;27381;46.032;13.650;2023-02-01T05:13:57;11.48;;;5.10;;
41297;SDS011;27381;46.032;13.650;2023-02-01T05:16:22;8.98;;;4.40;;
41297;SDS011;27381;46.032;13.650;2023-02-01T05:18:48;5.25;;;3.47;;
41297;SDS011;27381;46.032;13.650;2023-02-01T05:21:13;5.95;;;4.30;;
41297;SDS011;27381;46.032;13.650;2023-02-01T05:23:39;4.00;;;2.53;;
41297;SDS011;27381;46.032;13.650;2023-02-01T05:26:22;6.95;;;2.70;;
41297;SDS011;27381;46.032;13.650;2023-02-01T05:28:48;7.22;;;4.57;;
41297;SDS011;27381;46.032;13.650;2023-02-01T05:31:13;6.40;;;3.75;;
41297;SDS011;27381;46.032;13.650;2023-02-01T05:33:39;9.57;;;4.30;;
41297;SDS011;27381;46.032;13.650;2023-02-01T05:36:04;4.32;;;2.95;;
41297;SDS011;27381;46.032;13.650;2023-02-01T05:38:29;9.48;;;4.15;;
41297;SDS011;27381;46.032;13.650;2023-02-01T05:40:55;7.80;;;3.47;;
41297;SDS011;27381;46.032;13.650;2023-02-01T05:43:21;9.88;;;3.72;;
41297;SDS011;27381;46.032;13.650;2023-02-01T05:45:46;10.43;;;3.75;;
41297;SDS011;27381;46.032;13.650;2023-02-01T05:48:11;11.60;;;3.30;;
41297;SDS011;27381;46.032;13.650;2023-02-01T05:50:37;8.25;;;4.60;;
41297;SDS011;27381;46.032;13.650;2023-02-01T05:53:07;9.43;;;4.70;;
41297;SDS011;27381;46.032;13.650;2023-02-01T05:55:32;6.07;;;4.00;;
41297;SDS011;27381;46.032;13.650;2023-02-01T05:57:58;10.50;;;3.63;;
41297;SDS011;27381;46.032;13.650;2023-02-01T06:00:23;6.50;;;3.58;;
41297;SDS011;27381;46.032;13.650;2023-02-01T06:02:49;6.78;;;4.28;;
41297;SDS011;27381;46.032;13.650;2023-02-01T06:05:14;7.65;;;4.22;;
41297;SDS011;27381;46.032;13.650;2023-02-01T06:07:40;2.53;;;2.25;;
41297;SDS011;27381;46.032;13.650;2023-02-01T06:10:05;3.20;;;2.42;;
41297;SDS011;27381;46.032;13.650;2023-02-01T06:12:31;6.72;;;3.63;;
41297;SDS011;27381;46.032;13.650;2023-02-01T06:14:57;10.50;;;5.20;;
41297;SDS011;27381;46.032;13.650;2023-02-01T06:17:23;6.07;;;4.03;;
41297;SDS011;27381;46.032;13.650;2023-02-01T06:19:49;5.35;;;2.20;;
41297;SDS011;27381;46.032;13.650;2023-02-01T06:22:14;4.93;;;3.65;;
41297;SDS011;27381;46.032;13.650;2023-02-01T06:24:40;5.28;;;3.03;;
41297;SDS011;27381;46.032;13.650;2023-02-01T06:27:06;12.05;;;4.07;;
41297;SDS011;27381;46.032;13.650;2023-02-01T06:29:32;6.97;;;2.83;;
41297;SDS011;27381;46.032;13.650;2023-02-01T06:31:57;9.02;;;3.97;;
41297;SDS011;27381;46.032;13.650;2023-02-01T06:34:23;8.80;;;3.97;;
41297;SDS011;27381;46.032;13.650;2023-02-01T06:36:48;9.70;;;2.78;;
41297;SDS011;27381;46.032;13.650;2023-02-01T06:39:14;9.57;;;5.35;;
41297;SDS011;27381;46.032;13.650;2023-02-01T06:41:41;7.32;;;4.78;;
41297;SDS011;27381;46.032;13.650;2023-02-01T06:44:07;8.10;;;4.88;;
41297;SDS011;27381;46.032;13.650;2023-02-01T06:46:33;9.35;;;4.20;;
41297;SDS011;27381;46.032;13.650;2023-02-01T06:48:59;6.22;;;3.58;;
41297;SDS011;27381;46.032;13.650;2023-02-01T06:51:25;8.45;;;3.50;;
41297;SDS011;27381;46.032;13.650;2023-02-01T06:53:51;10.35;;;3.55;;
41297;SDS011;27381;46.032;13.650;2023-02-01T06:56:17;6.80;;;3.85;;
41297;SDS011;27381;46.032;13.650;2023-02-01T06:58:42;7.88;;;4.13;;
41297;SDS011;27381;46.032;13.650;2023-02-01T07:01:08;11.77;;;3.50;;
41297;SDS011;27381;46.032;13.650;2023-02-01T07:03:34;11.10;;;4.75;;
41297;SDS011;27381;46.032;13.650;2023-02-01T07:06:00;6.32;;;3.45;;
41297;SDS011;27381;46.032;13.650;2023-02-01T07:08:27;6.22;;;2.88;;
41297;SDS011;27381;46.032;13.650;2023-02-01T07:10:52;10.65;;;4.28;;
41297;SDS011;27381;46.032;13.650;2023-02-01T07:13:18;9.48;;;3.63;;
41297;SDS011;27381;46.032;13.650;2023-02-01T07:15:43;10.52;;;4.93;;
41297;SDS011;27381;46.032;13.650;2023-02-01T07:18:09;5.57;;;4.57;;
41297;SDS011;27381;46.032;13.650;2023-02-01T07:20:34;9.27;;;4.70;;
41297;SDS011;27381;46.032;13.650;2023-02-01T07:22:59;4.45;;;3.35;;
41297;SDS011;27381;46.032;13.650;2023-02-01T07:25:25;9.25;;;4.47;;
41297;SDS011;27381;46.032;13.650;2023-02-01T07:27:50;10.38;;;3.95;;
41297;SDS011;27381;46.032;13.650;2023-02-01T07:30:16;10.77;;;4.25;;
41297;SDS011;27381;46.032;13.650;2023-02-01T07:32:41;9.60;;;3.88;;
41297;SDS011;27381;46.032;13.650;2023-02-01T07:35:07;5.78;;;2.90;;
41297;SDS011;27381;46.032;13.650;2023-02-01T07:37:32;8.98;;;4.32;;
41297;SDS011;27381;46.032;13.650;2023-02-01T07:39:58;7.53;;;4.05;;
41297;SDS011;27381;46.032;13.650;2023-02-01T07:42:23;6.80;;;4.57;;
41297;SDS011;27381;46.032;13.650;2023-02-01T07:44:49;8.60;;;3.72;;
41297;SDS011;27381;46.032;13.650;2023-02-01T07:47:14;17.05;;;4.30;;
41297;SDS011;27381;46.032;13.650;2023-02-01T07:49:39;8.82;;;3.92;;
41297;SDS011;27381;46.032;13.650;2023-02-01T07:52:05;8.57;;;4.32;;
41297;SDS011;27381;46.032;13.650;2023-02-01T07:54:30;7.82;;;3.88;;
41297;SDS011;27381;46.032;13.650;2023-02-01T07:56:56;10.30;;;3.42;;
41297;SDS011;27381;46.032;13.650;2023-02-01T07:59:22;9.98;;;4.13;;
41297;SDS011;27381;46.032;13.650;2023-02-01T08:01:47;12.20;;;4.50;;
41297;SDS011;27381;46.032;13.650;2023-02-01T08:04:12;4.93;;;4.43;;
41297;SDS011;27381;46.032;13.650;2023-02-01T08:06:38;5.32;;;3.25;;
41297;SDS011;27381;46.032;13.650;2023-02-01T08:09:04;4.05;;;2.67;;
41297;SDS011;27381;46.032;13.650;2023-02-01T08:11:30;4.90;;;2.90;;
41297;SDS011;27381;46.032;13.650;2023-02-01T08:13:56;7.30;;;3.92;;
41297;SDS011;27381;46.032;13.650;2023-02-01T08:16:22;6.10;;;4.05;;
41297;SDS011;27381;46.032;13.650;2023-02-01T08:18:48;11.35;;;4.13;;
41297;SDS011;27381;46.032;13.650;2023-02-01T08:21:15;17.50;;;4.97;;
41297;SDS011;27381;46.032;13.650;2023-02-01T08:23:41;8.73;;;4.55;;
41297;SDS011;27381;46.032;13.650;2023-02-01T08:26:07;8.02;;;3.70;;
41297;SDS011;27381;46.032;13.650;2023-02-01T08:28:33;5.90;;;3.55;;
41297;SDS011;27381;46.032;13.650;2023-02-01T08:30:59;14.32;;;5.45;;
41297;SDS011;27381;46.032;13.650;2023-02-01T08:33:24;6.90;;;4.03;;
41297;SDS011;27381;46.032;13.650;2023-02-01T08:35:50;6.20;;;3.63;;
41297;SDS011;27381;46.032;13.650;2023-02-01T08:38:15;6.50;;;3.67;;
41297;SDS011;27381;46.032;13.650;2023-02-01T08:40:40;8.73;;;4.13;;
41297;SDS011;27381;46.032;13.650;2023-02-01T08:43:07;10.07;;;4.35;;
41297;SDS011;27381;46.032;13.650;2023-02-01T08:45:32;14.38;;;5.75;;
41297;SDS011;27381;46.032;13.650;2023-02-01T08:47:58;9.85;;;5.05;;
41297;SDS011;27381;46.032;13.650;2023-02-01T08:50:24;9.00;;;4.10;;
41297;SDS011;27381;46.032;13.650;2023-02-01T08:52:49;14.10;;;4.80;;
41297;SDS011;27381;46.032;13.650;2023-02-01T08:55:14;10.43;;;5.70;;
41297;SDS011;27381;46.032;13.650;2023-02-01T08:57:40;12.63;;;4.95;;
41297;SDS011;27381;46.032;13.650;2023-02-01T09:00:06;7.40;;;3.65;;
41297;SDS011;27381;46.032;13.650;2023-02-01T09:02:33;12.63;;;3.40;;
41297;SDS011;27381;46.032;13.650;2023-02-01T09:04:59;8.68;;;3.65;;
41297;SDS011;27381;46.032;13.650;2023-02-01T09:07:24;5.20;;;2.95;;
41297;SDS011;27381;46.032;13.650;2023-02-01T09:09:49;14.82;;;4.28;;
41297;SDS011;27381;46.032;13.650;2023-02-01T09:12:15;11.23;;;4.70;;
41297;SDS011;27381;46.032;13.650;2023-02-01T09:14:40;8.95;;;4.47;;
41297;SDS011;27381;46.032;13.650;2023-02-01T09:17:05;6.20;;;4.05;;
41297;SDS011;27381;46.032;13.650;2023-02-01T09:19:31;9.30;;;5.32;;
41297;SDS011;27381;46.032;13.650;2023-02-01T09:21:57;9.20;;;4.03;;
41297;SDS011;27381;46.032;13.650;2023-02-01T09:24:22;7.10;;;4.70;;
41297;SDS011;27381;46.032;13.650;2023-02-01T09:26:47;9.73;;;3.95;;
41297;SDS011;27381;46.032;13.650;2023-02-01T09:29:13;9.55;;;4.43;;
41297;SDS011;27381;46.032;13.650;2023-02-01T09:31:39;5.07;;;3.28;;
41297;SDS011;27381;46.032;13.650;2023-02-01T09:34:05;8.63;;;4.70;;
41297;SDS011;27381;46.032;13.650;2023-02-01T09:36:31;7.95;;;4.05;;
41297;SDS011;27381;46.032;13.650;2023-02-01T09:38:57;14.23;;;4.40;;
41297;SDS011;27381;46.032;13.650;2023-02-01T09:46:41;12.27;;;5.38;;
41297;SDS011;27381;46.032;13.650;2023-02-01T09:49:51;13.43;;;5.25;;
41297;SDS011;27381;46.032;13.650;2023-02-01T09:51:55;8.82;;;4.03;;
41297;SDS011;27381;46.032;13.650;2023-02-01T09:54:25;12.85;;;5.57;;
41297;SDS011;27381;46.032;13.650;2023-02-01T09:56:53;18.40;;;5.70;;
41297;SDS011;27381;46.032;13.650;2023-02-01T09:59:29;11.55;;;5.15;;
41297;SDS011;27381;46.032;13.650;2023-02-01T10:01:57;6.80;;;4.38;;
41297;SDS011;27381;46.032;13.650;2023-02-01T10:04:24;9.70;;;5.22;;
41297;SDS011;27381;46.032;13.650;2023-02-01T10:07:06;5.32;;;4.63;;
41297;SDS011;27381;46.032;13.650;2023-02-01T10:20:19;7.57;;;4.00;;
41297;SDS011;27381;46.032;13.650;2023-02-01T10:22:53;6.75;;;4.18;;
41297;SDS011;27381;46.032;13.650;2023-02-01T10:25:26;8.45;;;5.18;;
41297;SDS011;27381;46.032;13.650;2023-02-01T10:27:52;11.02;;;5.25;;
41297;SDS011;27381;46.032;13.650;2023-02-01T10:30:39;8.15;;;4.38;;
41297;SDS011;27381;46.032;13.650;2023-02-01T10:33:25;10.85;;;4.63;;
41297;SDS011;27381;46.032;13.650;2023-02-01T10:35:53;9.65;;;5.03;;
41297;SDS011;27381;46.032;13.650;2023-02-01T10:38:22;9.85;;;5.22;;
41297;SDS011;27381;46.032;13.650;2023-02-01T10:40:50;10.40;;;5.28;;
41297;SDS011;27381;46.032;13.650;2023-02-01T10:43:16;12.85;;;5.55;;
41297;SDS011;27381;46.032;13.650;2023-02-01T10:45:41;10.57;;;4.75;;
41297;SDS011;27381;46.032;13.650;2023-02-01T10:48:07;13.35;;;4.53;;
41297;SDS011;27381;46.032;13.650;2023-02-01T10:50:35;12.43;;;4.75;;
41297;SDS011;27381;46.032;13.650;2023-02-01T10:55:39;8.38;;;5.47;;
41297;SDS011;27381;46.032;13.650;2023-02-01T10:58:06;9.20;;;5.50;;
41297;SDS011;27381;46.032;13.650;2023-02-01T11:01:07;10.45;;;5.30;;
41297;SDS011;27381;46.032;13.650;2023-02-01T11:05:55;12.93;;;5.88;;
41297;SDS011;27381;46.032;13.650;2023-02-01T11:08:21;10.60;;;6.93;;
41297;SDS011;27381;46.032;13.650;2023-02-01T11:10:46;5.38;;;4.03;;
41297;SDS011;27381;46.032;13.650;2023-02-01T11:13:16;14.23;;;5.57;;
41297;SDS011;27381;46.032;13.650;2023-02-01T11:15:45;19.55;;;6.15;;
41297;SDS011;27381;46.032;13.650;2023-02-01T11:18:25;11.50;;;6.07;;
41297;SDS011;27381;46.032;13.650;2023-02-01T11:20:51;14.77;;;6.18;;
41297;SDS011;27381;46.032;13.650;2023-02-01T11:23:19;11.52;;;5.47;;
41297;SDS011;27381;46.032;13.650;2023-02-01T11:25:56;8.05;;;4.32;;
41297;SDS011;27381;46.032;13.650;2023-02-01T11:28:23;17.70;;;6.15;;
41297;SDS011;27381;46.032;13.650;2023-02-01T11:30:49;11.30;;;5.65;;
41297;SDS011;27381;46.032;13.650;2023-02-01T11:33:18;9.73;;;4.65;;
41297;SDS011;27381;46.032;13.650;2023-02-01T11:35:44;13.10;;;7.28;;
41297;SDS011;27381;46.032;13.650;2023-02-01T11:38:22;19.92;;;6.38;;
41297;SDS011;27381;46.032;13.650;2023-02-01T11:40:47;15.88;;;6.90;;
41297;SDS011;27381;46.032;13.650;2023-02-01T11:45:39;9.40;;;5.20;;
41297;SDS011;27381;46.032;13.650;2023-02-01T11:48:08;16.90;;;7.18;;
41297;SDS011;27381;46.032;13.650;2023-02-01T11:50:40;11.95;;;5.38;;
41297;SDS011;27381;46.032;13.650;2023-02-01T11:53:25;7.97;;;5.45;;
41297;SDS011;27381;46.032;13.650;2023-02-01T11:58:28;13.88;;;6.45;;
41297;SDS011;27381;46.032;13.650;2023-02-01T12:01:00;15.98;;;5.75;;
41297;SDS011;27381;46.032;13.650;2023-02-01T12:08:44;10.82;;;6.07;;
41297;SDS011;27381;46.032;13.650;2023-02-01T12:11:23;12.68;;;5.63;;
41297;SDS011;27381;46.032;13.650;2023-02-01T12:21:53;10.70;;;5.63;;
41297;SDS011;27381;46.032;13.650;2023-02-01T12:32:18;14.88;;;7.05;;
41297;SDS011;27381;46.032;13.650;2023-02-01T12:42:48;12.05;;;6.88;;
41297;SDS011;27381;46.032;13.650;2023-02-01T12:47:55;7.70;;;5.13;;
41297;SDS011;27381;46.032;13.650;2023-02-01T12:50:26;17.83;;;6.53;;
41297;SDS011;27381;46.032;13.650;2023-02-01T12:52:55;12.60;;;5.72;;
41297;SDS011;27381;46.032;13.650;2023-02-01T13:00:36;11.55;;;6.43;;
41297;SDS011;27381;46.032;13.650;2023-02-01T13:08:36;10.93;;;5.93;;
41297;SDS011;27381;46.032;13.650;2023-02-01T13:11:04;8.15;;;3.20;;
41297;SDS011;27381;46.032;13.650;2023-02-01T13:13:35;7.95;;;4.15;;
41297;SDS011;27381;46.032;13.650;2023-02-01T13:16:17;13.23;;;6.13;;
41297;SDS011;27381;46.032;13.650;2023-02-01T13:18:45;6.70;;;3.97;;
41297;SDS011;27381;46.032;13.650;2023-02-01T13:21:16;24.27;;;8.52;;
41297;SDS011;27381;46.032;13.650;2023-02-01T13:23:43;9.93;;;5.72;;
41297;SDS011;27381;46.032;13.650;2023-02-01T13:26:10;18.20;;;6.95;;
41297;SDS011;27381;46.032;13.650;2023-02-01T13:31:21;16.25;;;7.82;;
41297;SDS011;27381;46.032;13.650;2023-02-01T13:36:24;17.48;;;6.68;;
41297;SDS011;27381;46.032;13.650;2023-02-01T13:41:41;20.17;;;7.80;;
41297;SDS011;27381;46.032;13.650;2023-02-01T13:44:11;23.73;;;9.65;;
41297;SDS011;27381;46.032;13.650;2023-02-01T13:46:40;14.57;;;6.72;;
41297;SDS011;27381;46.032;13.650;2023-02-01T13:49:06;12.90;;;7.35;;
41297;SDS011;27381;46.032;13.650;2023-02-01T13:51:42;15.97;;;8.13;;
41297;SDS011;27381;46.032;13.650;2023-02-01T13:54:25;15.27;;;7.40;;
41297;SDS011;27381;46.032;13.650;2023-02-01T13:56:51;11.55;;;5.63;;
41297;SDS011;27381;46.032;13.650;2023-02-01T14:04:46;3.63;;;2.90;;
41297;SDS011;27381;46.032;13.650;2023-02-01T14:07:19;9.27;;;4.15;;
41297;SDS011;27381;46.032;13.650;2023-02-01T14:09:45;10.85;;;7.18;;
41297;SDS011;27381;46.032;13.650;2023-02-01T14:15:16;18.38;;;7.78;;
41297;SDS011;27381;46.032;13.650;2023-02-01T14:17:41;22.23;;;9.18;;
41297;SDS011;27381;46.032;13.650;2023-02-01T14:22:51;18.92;;;8.20;;
41297;SDS011;27381;46.032;13.650;2023-02-01T14:25:25;13.75;;;8.57;;
41297;SDS011;27381;46.032;13.650;2023-02-01T14:27:52;23.40;;;7.78;;
41297;SDS011;27381;46.032;13.650;2023-02-01T14:30:18;17.83;;;9.52;;
41297;SDS011;27381;46.032;13.650;2023-02-01T14:32:44;18.75;;;8.57;;
41297;SDS011;27381;46.032;13.650;2023-02-01T14:35:17;30.80;;;10.98;;
41297;SDS011;27381;46.032;13.650;2023-02-01T14:37:44;20.33;;;11.27;;
41297;SDS011;27381;46.032;13.650;2023-02-01T14:42:43;18.35;;;9.20;;
41297;SDS011;27381;46.032;13.650;2023-02-01T14:53:10;23.42;;;8.77;;
41297;SDS011;27381;46.032;13.650;2023-02-01T14:58:21;16.02;;;7.80;;
41297;SDS011;27381;46.032;13.650;2023-02-01T15:00:50;14.52;;;8.25;;
41297;SDS011;27381;46.032;13.650;2023-02-01T15:05:44;31.63;;;12.80;;
41297;SDS011;27381;46.032;13.650;2023-02-01T15:08:13;16.75;;;9.98;;
41297;SDS011;27381;46.032;13.650;2023-02-01T15:10:43;17.83;;;9.57;;
41297;SDS011;27381;46.032;13.650;2023-02-01T15:13:20;18.00;;;9.35;;
41297;SDS011;27381;46.032;13.650;2023-02-01T15:16:02;18.00;;;9.07;;
41297;SDS011;27381;46.032;13.650;2023-02-01T15:18:28;19.25;;;9.00;;
41297;SDS011;27381;46.032;13.650;2023-02-01T15:21:01;17.98;;;9.43;;
41297;SDS011;27381;46.032;13.650;2023-02-01T15:23:27;19.17;;;8.55;;
41297;SDS011;27381;46.032;13.650;2023-02-01T15:25:53;15.13;;;8.80;;
41297;SDS011;27381;46.032;13.650;2023-02-01T15:28:20;20.50;;;12.07;;
41297;SDS011;27381;46.032;13.650;2023-02-01T15:33:18;20.70;;;10.45;;
41297;SDS011;27381;46.032;13.650;2023-02-01T15:35:45;20.38;;;7.25;;
41297;SDS011;27381;46.032;13.650;2023-02-01T15:40:56;27.80;;;12.07;;
41297;SDS011;27381;46.032;13.650;2023-02-01T15:43:23;27.40;;;10.30;;
41297;SDS011;27381;46.032;13.650;2023-02-01T15:45:50;25.90;;;10.30;;
41297;SDS011;27381;46.032;13.650;2023-02-01T15:48:22;19.02;;;9.60;;
41297;SDS011;27381;46.032;13.650;2023-02-01T15:50:48;20.13;;;9.48;;
41297;SDS011;27381;46.032;13.650;2023-02-01T15:53:19;28.00;;;10.90;;
41297;SDS011;27381;46.032;13.650;2023-02-01T15:55:46;23.90;;;10.32;;
41297;SDS011;27381;46.032;13.650;2023-02-01T15:58:20;18.95;;;9.45;;
41297;SDS011;27381;46.032;13.650;2023-02-01T16:05:59;21.05;;;9.15;;
41297;SDS011;27381;46.032;13.650;2023-02-01T16:08:27;21.63;;;9.40;;
41297;SDS011;27381;46.032;13.650;2023-02-01T16:11:00;26.13;;;12.23;;
41297;SDS011;27381;46.032;13.650;2023-02-01T16:13:27;21.60;;;11.05;;
41297;SDS011;27381;46.032;13.650;2023-02-01T16:15:53;24.25;;;11.73;;
41297;SDS011;27381;46.032;13.650;2023-02-01T16:18:18;24.00;;;11.70;;
41297;SDS011;27381;46.032;13.650;2023-02-01T16:20:43;30.20;;;11.23;;
41297;SDS011;27381;46.032;13.650;2023-02-01T16:23:09;30.33;;;13.98;;
41297;SDS011;27381;46.032;13.650;2023-02-01T16:25:36;25.42;;;11.73;;
41297;SDS011;27381;46.032;13.650;2023-02-01T16:28:02;22.95;;;11.95;;
41297;SDS011;27381;46.032;13.650;2023-02-01T16:30:27;22.30;;;10.75;;
41297;SDS011;27381;46.032;13.650;2023-02-01T16:32:56;29.52;;;14.43;;
41297;SDS011;27381;46.032;13.650;2023-02-01T16:35:32;27.02;;;12.50;;
41297;SDS011;27381;46.032;13.650;2023-02-01T16:38:01;23.60;;;13.43;;
41297;SDS011;27381;46.032;13.650;2023-02-01T16:40:27;27.05;;;12.02;;
41297;SDS011;27381;46.032;13.650;2023-02-01T16:42:53;29.50;;;15.35;;
41297;SDS011;27381;46.032;13.650;2023-02-01T16:45:20;31.05;;;14.20;;
41297;SDS011;27381;46.032;13.650;2023-02-01T16:47:49;26.65;;;13.52;;
41297;SDS011;27381;46.032;13.650;2023-02-01T16:50:21;42.00;;;17.98;;
41297;SDS011;27381;46.032;13.650;2023-02-01T16:52:47;31.05;;;14.63;;
41297;SDS011;27381;46.032;13.650;2023-02-01T16:55:13;31.75;;;15.27;;
41297;SDS011;27381;46.032;13.650;2023-02-01T16:57:39;33.38;;;15.60;;
41297;SDS011;27381;46.032;13.650;2023-02-01T17:00:05;40.63;;;15.90;;
41297;SDS011;27381;46.032;13.650;2023-02-01T17:02:31;35.92;;;18.80;;